Time;durP1;ratioP1;P1;durP2;ratioP2;P2;SDS_P1;SDS_P2;PMS_P1;PMS_P2;Temp;Humidity;BMP_temperature;BMP_pressure;BME280_temperature;BME280_humidity;BME280_pressure;Samples;Min_cycle;Max_cycle;Signal;HPM_P1;HPM_P2
2023/07/28 00:01:27;;;;;;;6.22;2.38;;;18.70;1.00;;;;;;5047542;28;20389;-69
2023/07/28 00:03:52;;;;;;;6.20;2.20;;;18.70;1.00;;;;;;5047424;28;20385;-69
2023/07/28 00:06:18;;;;;;;8.53;2.33;;;18.60;1.00;;;;;;5048128;28;20428;-68
2023/07/28 00:08:43;;;;;;;8.15;2.10;;;18.60;1.00;;;;;;5046641;28;20481;-68
2023/07/28 00:11:11;;;;;;;7.90;2.30;;;18.60;1.00;;;;;;5049402;28;20442;-68
2023/07/28 00:13:37;;;;;;;5.50;1.45;;;18.60;1.00;;;;;;5050151;28;20394;-68
2023/07/28 00:22:04;;;;;;;7.90;1.95;;;18.70;1.00;;;;;;4983164;28;20477;-69
2023/07/28 00:24:30;;;;;;;5.80;2.13;;;18.80;1.00;;;;;;4990509;28;20422;-69
2023/07/28 00:26:55;;;;;;;8.30;2.00;;;18.80;1.00;;;;;;4990539;28;20426;-69
2023/07/28 00:29:20;;;;;;;7.43;2.20;;;18.80;1.00;;;;;;4989956;28;20769;-69
2023/07/28 00:31:46;;;;;;;9.33;2.40;;;18.70;1.00;;;;;;4989386;28;20401;-69
2023/07/28 00:34:11;;;;;;;6.28;2.28;;;18.70;1.00;;;;;;4990006;28;20493;-69
2023/07/28 00:36:37;;;;;;;8.25;2.00;;;18.80;1.00;;;;;;4990350;28;20394;-69
2023/07/28 00:39:02;;;;;;;6.55;2.42;;;18.70;1.00;;;;;;4989590;28;20397;-69
2023/07/28 00:41:28;;;;;;;5.78;2.10;;;18.60;1.00;;;;;;4991298;28;20405;-69
2023/07/28 00:43:54;;;;;;;6.17;2.20;;;18.50;1.00;;;;;;4989411;28;20453;-69
2023/07/28 00:46:19;;;;;;;6.70;2.23;;;18.50;1.00;;;;;;4989416;28;20437;-69
2023/07/28 00:48:45;;;;;;;5.60;1.90;;;18.50;1.00;;;;;;4989273;28;20477;-69
2023/07/28 00:51:11;;;;;;;6.75;1.80;;;18.50;1.00;;;;;;5003132;28;20400;-69
2023/07/28 00:53:37;;;;;;;7.10;2.50;;;18.50;1.00;;;;;;5009393;28;20393;-69
2023/07/28 00:56:03;;;;;;;6.20;2.15;;;18.50;1.00;;;;;;5009432;28;20403;-69
2023/07/28 00:58:30;;;;;;;7.35;2.38;;;18.50;1.00;;;;;;5009631;28;20441;-69
2023/07/28 01:00:55;;;;;;;6.25;2.15;;;18.60;1.00;;;;;;5009145;28;20397;-69
2023/07/28 01:03:21;;;;;;;6.97;2.28;;;18.60;1.00;;;;;;5009097;28;20479;-69
2023/07/28 01:05:50;;;;;;;7.70;2.30;;;18.50;1.00;;;;;;5008467;28;20423;-69
2023/07/28 01:08:19;;;;;;;6.70;2.25;;;18.50;1.00;;;;;;4994567;28;20395;-69
2023/07/28 01:10:44;;;;;;;5.70;2.00;;;18.40;1.00;;;;;;4991277;28;20394;-69
2023/07/28 01:13:10;;;;;;;6.10;1.90;;;18.40;1.00;;;;;;4988943;28;20398;-69
2023/07/28 01:15:35;;;;;;;6.65;2.20;;;18.40;1.00;;;;;;4987380;28;20468;-69
2023/07/28 01:18:01;;;;;;;6.22;2.05;;;18.30;1.00;;;;;;4988612;28;20544;-69
2023/07/28 01:20:31;;;;;;;6.30;2.20;;;18.30;1.00;;;;;;4992026;28;20413;-69
2023/07/28 01:23:16;;;;;;;6.90;2.30;;;18.10;1.00;;;;;;4993088;28;20398;-69
2023/07/28 01:26:00;;;;;;;7.57;2.10;;;18.00;1.00;;;;;;5010530;28;20516;-69
2023/07/28 01:28:27;;;;;;;6.03;2.03;;;18.00;1.00;;;;;;5012529;28;20392;-69
2023/07/28 01:30:52;;;;;;;6.88;2.10;;;18.00;1.00;;;;;;5012285;28;20393;-69
2023/07/28 01:33:18;;;;;;;6.40;1.87;;;18.00;1.00;;;;;;5011852;28;20819;-69
2023/07/28 01:35:44;;;;;;;7.63;2.70;;;18.00;1.00;;;;;;5011794;28;20397;-69
2023/07/28 01:38:10;;;;;;;8.27;2.50;;;18.00;1.00;;;;;;5011774;28;20997;-69
2023/07/28 01:40:35;;;;;;;6.03;2.30;;;17.90;1.00;;;;;;5010988;28;20450;-69
2023/07/28 01:43:01;;;;;;;7.50;2.55;;;17.80;1.00;;;;;;5011803;28;20728;-69
2023/07/28 01:45:26;;;;;;;8.88;2.30;;;17.80;8.20;;;;;;5012292;28;20495;-69
2023/07/28 01:47:52;;;;;;;9.70;2.60;;;17.70;1.60;;;;;;5011500;28;20728;-69
2023/07/28 01:50:17;;;;;;;6.70;2.00;;;17.70;13.80;;;;;;5011606;28;20400;-69
2023/07/28 01:52:43;;;;;;;7.00;2.70;;;17.70;7.90;;;;;;5011521;28;20954;-69
2023/07/28 01:55:08;;;;;;;6.50;2.70;;;17.70;3.40;;;;;;5011881;28;20892;-69
2023/07/28 01:57:34;;;;;;;6.28;2.20;;;17.70;6.50;;;;;;5010446;28;20841;-69
2023/07/28 02:00:00;;;;;;;6.30;2.10;;;17.70;5.70;;;;;;4992348;28;20890;-69
2023/07/28 02:02:26;;;;;;;5.65;2.00;;;17.80;1.00;;;;;;4991658;28;20441;-69
2023/07/28 02:04:51;;;;;;;7.80;1.90;;;17.80;1.00;;;;;;4974162;28;20858;-69
2023/07/28 02:07:17;;;;;;;8.27;2.30;;;17.90;1.00;;;;;;4991757;28;20446;-69
2023/07/28 02:09:42;;;;;;;7.20;2.30;;;17.80;1.00;;;;;;4991677;28;20398;-69
2023/07/28 02:12:08;;;;;;;6.40;2.00;;;17.90;1.00;;;;;;4991929;28;20449;-69
2023/07/28 02:14:34;;;;;;;6.70;2.30;;;18.00;1.00;;;;;;4992188;28;20395;-69
2023/07/28 02:16:59;;;;;;;5.53;1.80;;;18.10;1.00;;;;;;4991969;28;20457;-69
2023/07/28 02:19:25;;;;;;;6.20;1.90;;;18.00;1.00;;;;;;4991548;28;20398;-69
2023/07/28 02:21:51;;;;;;;7.60;1.90;;;18.00;1.00;;;;;;4991380;28;20464;-69
2023/07/28 02:24:16;;;;;;;6.50;2.40;;;18.00;6.30;;;;;;4991367;28;20402;-69
2023/07/28 02:26:42;;;;;;;5.97;2.05;;;18.00;9.40;;;;;;4991223;28;20414;-69
2023/07/28 02:29:07;;;;;;;6.20;2.10;;;18.10;1.00;;;;;;4991341;28;20482;-69
2023/07/28 02:31:33;;;;;;;5.83;2.07;;;18.20;1.00;;;;;;4972914;28;20450;-69
2023/07/28 02:33:58;;;;;;;5.90;2.10;;;18.30;1.00;;;;;;5011198;28;20404;-69
2023/07/28 02:36:24;;;;;;;6.40;2.00;;;18.40;1.00;;;;;;5010537;28;20389;-69
2023/07/28 02:38:49;;;;;;;6.50;1.90;;;18.40;1.00;;;;;;5010572;28;20828;-69
2023/07/28 02:41:15;;;;;;;7.10;1.70;;;18.50;1.00;;;;;;5010738;28;20728;-69
2023/07/28 02:43:40;;;;;;;5.90;2.00;;;18.50;1.00;;;;;;5010853;28;20412;-69
2023/07/28 02:46:06;;;;;;;5.70;1.90;;;18.50;1.00;;;;;;5010114;28;20424;-69
2023/07/28 02:48:32;;;;;;;7.05;1.92;;;18.50;1.00;;;;;;5010108;28;20834;-69
2023/07/28 02:50:57;;;;;;;5.70;2.03;;;18.60;1.00;;;;;;4991627;28;20458;-69
2023/07/28 02:53:23;;;;;;;5.80;2.00;;;18.50;1.00;;;;;;4991100;28;20410;-69
2023/07/28 02:55:48;;;;;;;6.63;1.97;;;18.50;1.00;;;;;;4990834;28;20391;-69
2023/07/28 02:58:14;;;;;;;5.77;1.87;;;18.40;1.00;;;;;;4991012;28;20479;-68
2023/07/28 03:00:44;;;;;;;6.22;2.10;;;18.50;1.00;;;;;;4990742;28;20827;-69
2023/07/28 03:03:12;;;;;;;5.25;1.50;;;18.50;1.00;;;;;;4990936;28;20882;-69
2023/07/28 03:05:38;;;;;;;5.50;1.70;;;18.50;1.00;;;;;;4991058;28;20414;-69
2023/07/28 03:08:05;;;;;;;5.50;2.00;;;18.50;1.00;;;;;;4990247;28;20401;-69
2023/07/28 03:10:30;;;;;;;7.10;2.05;;;18.40;1.00;;;;;;4990861;28;20398;-69
2023/07/28 03:12:56;;;;;;;6.10;2.13;;;18.40;1.00;;;;;;4990641;28;20398;-69
2023/07/28 03:15:22;;;;;;;6.38;2.20;;;18.40;1.00;;;;;;4990012;28;20497;-69
2023/07/28 03:17:53;;;;;;;6.20;2.10;;;18.40;1.00;;;;;;4989949;28;20398;-69
2023/07/28 03:20:18;;;;;;;6.10;2.10;;;18.40;1.00;;;;;;4989938;28;20457;-69
2023/07/28 03:22:44;;;;;;;7.10;2.30;;;18.50;1.00;;;;;;4991689;28;20402;-69
2023/07/28 03:25:10;;;;;;;6.80;2.17;;;18.50;1.00;;;;;;5010742;28;20430;-68
2023/07/28 03:27:35;;;;;;;5.80;1.80;;;18.40;1.00;;;;;;5010007;28;20488;-68
2023/07/28 03:30:01;;;;;;;5.63;1.77;;;18.50;1.00;;;;;;5009995;28;20883;-69
2023/07/28 03:32:27;;;;;;;6.33;2.50;;;18.50;1.00;;;;;;5010535;28;20392;-69
2023/07/28 03:34:52;;;;;;;6.20;2.10;;;18.50;1.00;;;;;;5009755;28;20377;-69
2023/07/28 03:37:19;;;;;;;6.10;2.50;;;18.50;1.00;;;;;;5009669;28;20787;-69
2023/07/28 03:39:44;;;;;;;6.93;2.30;;;18.50;1.00;;;;;;5008745;28;20855;-69
2023/07/28 03:42:10;;;;;;;6.30;2.20;;;18.60;1.00;;;;;;5009381;28;20460;-69
2023/07/28 03:44:37;;;;;;;7.30;2.30;;;18.60;1.00;;;;;;5008822;28;20414;-69
2023/07/28 03:47:03;;;;;;;6.60;2.20;;;18.50;1.00;;;;;;5010222;28;20420;-69
2023/07/28 03:49:29;;;;;;;6.50;2.20;;;18.50;1.00;;;;;;5010388;28;20396;-69
2023/07/28 03:51:54;;;;;;;6.20;2.10;;;18.50;1.00;;;;;;5009813;28;20399;-69
2023/07/28 03:54:20;;;;;;;5.55;1.70;;;18.50;1.00;;;;;;5010076;28;20393;-69
2023/07/28 03:56:45;;;;;;;6.35;2.05;;;18.50;1.00;;;;;;5007657;28;20488;-69
2023/07/28 03:59:11;;;;;;;5.75;1.90;;;18.60;1.00;;;;;;4990296;28;20510;-68
2023/07/28 04:01:36;;;;;;;6.97;2.20;;;18.60;1.00;;;;;;4990871;28;20540;-68
2023/07/28 04:04:04;;;;;;;6.13;1.90;;;18.60;1.00;;;;;;4990341;28;20391;-68
2023/07/28 04:06:45;;;;;;;9.80;2.00;;;18.70;1.00;;;;;;4990039;28;20505;-69
2023/07/28 04:09:12;;;;;;;8.27;2.70;;;18.80;1.00;;;;;;4989399;28;20402;-69
2023/07/28 04:11:38;;;;;;;6.63;1.80;;;18.90;1.00;;;;;;4989395;28;20889;-69
2023/07/28 04:14:04;;;;;;;6.60;2.30;;;18.80;1.00;;;;;;4989683;28;20457;-69
2023/07/28 04:16:30;;;;;;;7.17;2.50;;;18.70;1.00;;;;;;4989865;28;20387;-69
2023/07/28 04:18:56;;;;;;;6.50;2.70;;;18.70;1.00;;;;;;4989363;28;20742;-70
2023/07/28 04:21:21;;;;;;;7.90;2.05;;;18.70;1.00;;;;;;4989019;28;20449;-69
2023/07/28 04:23:47;;;;;;;5.90;2.10;;;18.80;1.00;;;;;;4989340;28;20505;-76
2023/07/28 04:26:12;;;;;;;7.83;2.80;;;18.80;1.00;;;;;;4989848;28;20429;-78
2023/07/28 04:28:38;;;;;;;6.20;1.93;;;18.90;1.00;;;;;;4989944;28;20394;-78
2023/07/28 04:31:03;;;;;;;8.90;2.00;;;18.90;1.00;;;;;;4994905;28;20899;-77
2023/07/28 04:33:29;;;;;;;7.10;2.47;;;18.90;1.00;;;;;;4991102;28;20399;-78
2023/07/28 04:35:54;;;;;;;6.55;2.25;;;18.90;1.00;;;;;;4989811;28;20488;-78
2023/07/28 04:38:20;;;;;;;10.23;3.53;;;18.90;1.00;;;;;;4992495;28;21051;-78
2023/07/28 04:40:45;;;;;;;7.40;2.20;;;19.00;1.00;;;;;;4997023;28;20827;-78
2023/07/28 04:43:11;;;;;;;6.00;2.30;;;19.00;1.00;;;;;;4985637;28;20413;-78
2023/07/28 04:45:36;;;;;;;6.13;2.13;;;19.10;1.00;;;;;;4978863;28;20466;-77
2023/07/28 04:48:02;;;;;;;5.70;2.00;;;19.20;1.00;;;;;;4982075;28;20402;-78
2023/07/28 04:50:28;;;;;;;6.63;2.20;;;19.20;1.00;;;;;;4976228;28;20410;-77
2023/07/28 04:52:54;;;;;;;7.22;1.90;;;19.10;1.00;;;;;;4974833;28;20442;-79
2023/07/28 04:55:20;;;;;;;6.20;2.00;;;19.10;1.00;;;;;;4978218;28;20411;-77
2023/07/28 04:57:45;;;;;;;5.57;1.80;;;19.10;1.00;;;;;;4980629;28;20414;-76
2023/07/28 05:00:11;;;;;;;7.25;2.20;;;19.10;1.00;;;;;;4979303;28;20509;-78
2023/07/28 05:02:37;;;;;;;5.93;2.50;;;19.10;1.00;;;;;;4990944;28;20465;-79
2023/07/28 05:05:02;;;;;;;6.53;2.27;;;19.10;1.00;;;;;;4983825;28;20416;-79
2023/07/28 05:07:29;;;;;;;6.65;2.20;;;19.20;1.00;;;;;;4990979;28;20426;-69
2023/07/28 05:09:54;;;;;;;6.40;2.25;;;19.10;1.00;;;;;;4988745;28;20406;-70
2023/07/28 05:12:20;;;;;;;6.63;2.07;;;19.00;4.20;;;;;;4990899;28;20948;-70
2023/07/28 05:14:46;;;;;;;5.90;2.20;;;19.00;26.70;;;;;;4991775;28;20406;-70
2023/07/28 05:17:11;;;;;;;7.00;2.40;;;18.90;43.50;;;;;;4981703;28;20469;-70
2023/07/28 05:19:37;;;;;;;7.27;2.50;;;19.00;69.40;;;;;;4980762;28;20472;-71
2023/07/28 05:22:03;;;;;;;6.60;2.40;;;19.10;41.10;;;;;;4985016;28;20508;-70
2023/07/28 05:24:28;;;;;;;6.15;2.20;;;19.00;18.10;;;;;;4982733;28;20394;-70
2023/07/28 05:26:54;;;;;;;6.03;2.00;;;19.00;24.60;;;;;;4982496;28;20439;-70
2023/07/28 05:29:19;;;;;;;8.98;2.88;;;18.90;33.90;;;;;;4983801;28;20399;-70
2023/07/28 05:31:45;;;;;;;6.22;2.45;;;18.90;19.00;;;;;;4981983;28;20414;-70
2023/07/28 05:34:12;;;;;;;6.90;2.77;;;19.00;17.30;;;;;;4968369;28;20417;-70
2023/07/28 05:36:38;;;;;;;8.52;2.75;;;19.00;29.30;;;;;;4991408;28;20409;-69
2023/07/28 05:39:04;;;;;;;6.50;2.63;;;19.20;17.70;;;;;;4996621;28;20397;-70
2023/07/28 05:41:30;;;;;;;7.38;2.53;;;19.30;33.20;;;;;;5011918;28;20389;-70
2023/07/28 05:43:55;;;;;;;6.23;2.10;;;19.40;44.60;;;;;;4994888;28;20404;-70
2023/07/28 05:46:21;;;;;;;6.90;2.37;;;19.50;46.80;;;;;;5011595;28;20467;-70
2023/07/28 05:48:46;;;;;;;7.70;2.70;;;19.50;38.60;;;;;;5011353;28;20387;-70
2023/07/28 05:51:12;;;;;;;6.30;2.50;;;19.50;23.40;;;;;;5011857;28;20492;-70
2023/07/28 05:53:37;;;;;;;6.70;2.40;;;19.40;41.40;;;;;;5011741;28;20415;-70
2023/07/28 05:56:03;;;;;;;9.70;2.80;;;19.40;29.10;;;;;;5007163;28;20398;-70
2023/07/28 05:58:29;;;;;;;7.10;2.65;;;19.40;38.70;;;;;;4992251;28;20399;-70
2023/07/28 06:00:54;;;;;;;10.57;3.33;;;19.30;20.20;;;;;;4973910;28;20401;-70
2023/07/28 06:03:20;;;;;;;7.77;2.40;;;19.30;57.10;;;;;;4991426;28;20580;-70
2023/07/28 06:05:45;;;;;;;6.13;2.60;;;19.30;75.70;;;;;;4987095;28;20423;-70
2023/07/28 06:08:11;;;;;;;6.70;2.92;;;19.30;57.00;;;;;;4984603;28;20465;-70
2023/07/28 06:10:37;;;;;;;6.35;2.40;;;19.30;40.20;;;;;;4959417;28;20507;-70
2023/07/28 06:13:02;;;;;;;7.20;2.75;;;19.30;79.90;;;;;;4978646;28;20769;-70
2023/07/28 06:15:28;;;;;;;7.80;2.80;;;19.30;91.70;;;;;;4992471;28;20757;-70
2023/07/28 06:17:53;;;;;;;7.60;2.20;;;19.40;75.00;;;;;;4992341;28;20494;-70
2023/07/28 06:20:19;;;;;;;6.97;2.30;;;19.40;57.10;;;;;;4991158;28;20427;-70
2023/07/28 06:22:45;;;;;;;5.33;1.87;;;19.50;61.50;;;;;;4991605;28;20444;-70
2023/07/28 06:25:10;;;;;;;6.40;2.30;;;19.50;56.60;;;;;;4991534;28;20390;-70
2023/07/28 06:27:36;;;;;;;6.40;2.45;;;19.60;64.80;;;;;;4992029;28;20454;-70
2023/07/28 06:30:02;;;;;;;6.75;2.40;;;19.80;59.50;;;;;;4996292;28;20401;-70
2023/07/28 06:32:27;;;;;;;8.87;2.80;;;19.70;24.30;;;;;;5011740;28;20385;-70
2023/07/28 06:34:54;;;;;;;6.75;2.33;;;19.50;68.80;;;;;;4993260;28;20764;-70
2023/07/28 06:37:20;;;;;;;8.55;2.10;;;19.60;86.70;;;;;;5010570;28;20443;-70
2023/07/28 06:39:46;;;;;;;6.25;2.20;;;19.50;57.30;;;;;;5002354;28;20530;-70
2023/07/28 06:42:11;;;;;;;5.20;2.00;;;19.60;88.90;;;;;;4991436;28;20931;-70
2023/07/28 06:44:37;;;;;;;6.50;2.10;;;19.60;55.00;;;;;;4991373;28;20387;-70
2023/07/28 06:47:03;;;;;;;7.57;2.28;;;19.70;91.80;;;;;;4995727;28;20448;-70
2023/07/28 06:49:28;;;;;;;6.57;2.10;;;19.80;44.30;;;;;;5011013;28;20751;-70
2023/07/28 06:51:54;;;;;;;6.50;2.50;;;20.00;58.80;;;;;;5010014;28;20408;-70
2023/07/28 06:54:19;;;;;;;6.37;2.50;;;20.20;25.70;;;;;;5011317;28;21119;-70
2023/07/28 06:56:45;;;;;;;6.20;2.20;;;20.30;1.00;;;;;;5010190;28;20397;-70
2023/07/28 06:59:11;;;;;;;6.73;2.50;;;20.30;1.00;;;;;;5010790;28;20433;-70
2023/07/28 07:01:37;;;;;;;5.95;1.90;;;20.40;1.00;;;;;;5011427;28;20389;-70
2023/07/28 07:04:04;;;;;;;7.50;2.20;;;20.40;1.00;;;;;;5005533;28;21130;-70
2023/07/28 07:06:30;;;;;;;7.50;2.30;;;20.40;1.00;;;;;;4990516;28;20770;-70
2023/07/28 07:08:55;;;;;;;7.00;2.00;;;20.40;1.00;;;;;;4991572;28;20468;-69
2023/07/28 07:11:21;;;;;;;7.20;2.20;;;20.50;1.00;;;;;;4986486;28;20408;-70
2023/07/28 07:13:46;;;;;;;6.40;2.30;;;20.60;1.00;;;;;;4961632;28;20438;-69
2023/07/28 07:16:17;;;;;;;5.87;2.00;;;20.70;1.00;;;;;;4990693;28;20417;-70
2023/07/28 07:18:43;;;;;;;6.68;2.10;;;20.70;1.00;;;;;;4989890;28;20417;-70
2023/07/28 07:21:09;;;;;;;5.60;2.10;;;20.60;1.00;;;;;;4990768;28;20629;-70
2023/07/28 07:23:36;;;;;;;6.00;2.10;;;20.60;1.00;;;;;;4990656;28;20886;-70
2023/07/28 07:26:01;;;;;;;6.90;2.70;;;20.60;1.00;;;;;;4988748;28;20436;-70
2023/07/28 07:28:28;;;;;;;6.70;2.20;;;20.70;1.00;;;;;;4990401;28;20560;-70
2023/07/28 07:30:57;;;;;;;6.43;2.20;;;20.80;1.00;;;;;;4990536;28;20453;-70
2023/07/28 07:33:24;;;;;;;6.32;2.30;;;20.80;1.00;;;;;;4990341;28;20809;-70
2023/07/28 07:35:49;;;;;;;6.38;2.15;;;20.90;1.00;;;;;;4989904;28;20390;-70
2023/07/28 07:38:15;;;;;;;6.20;2.00;;;21.10;1.00;;;;;;4990435;28;20402;-70
2023/07/28 07:40:40;;;;;;;7.53;1.53;;;21.40;1.00;;;;;;4969567;28;20418;-70
2023/07/28 07:43:06;;;;;;;6.03;2.00;;;21.60;1.00;;;;;;4985053;28;20965;-70
2023/07/28 07:45:32;;;;;;;6.80;2.20;;;21.80;1.00;;;;;;4988299;28;20961;-70
2023/07/28 07:47:59;;;;;;;7.13;1.90;;;21.80;1.00;;;;;;4990528;28;20399;-70
2023/07/28 07:50:24;;;;;;;6.20;1.75;;;21.90;1.00;;;;;;4987837;28;20936;-70
2023/07/28 07:52:50;;;;;;;7.70;2.15;;;22.00;1.00;;;;;;4989981;28;20398;-70
2023/07/28 07:55:16;;;;;;;6.55;1.77;;;21.90;1.00;;;;;;4988903;28;20441;-70
2023/07/28 07:57:41;;;;;;;6.37;2.10;;;21.90;1.00;;;;;;4989700;28;20727;-70
2023/07/28 08:00:08;;;;;;;5.90;1.60;;;21.90;1.00;;;;;;4989651;28;20789;-70
2023/07/28 08:02:34;;;;;;;9.00;1.50;;;21.80;1.00;;;;;;4989880;28;20430;-70
2023/07/28 08:05:00;;;;;;;5.43;1.60;;;21.80;1.00;;;;;;4987403;28;20395;-70
2023/07/28 08:07:26;;;;;;;4.90;1.40;;;21.90;1.00;;;;;;4989818;28;20441;-70
2023/07/28 08:09:51;;;;;;;5.43;1.38;;;21.80;1.00;;;;;;4988350;28;20490;-70
2023/07/28 08:12:17;;;;;;;4.88;1.20;;;21.80;1.00;;;;;;4989978;28;20526;-70
2023/07/28 08:14:43;;;;;;;4.57;0.90;;;21.80;1.00;;;;;;4988737;28;20434;-70
2023/07/28 08:17:09;;;;;;;4.70;1.20;;;21.80;1.00;;;;;;4989287;28;20406;-70
2023/07/28 08:19:35;;;;;;;5.82;1.08;;;21.90;1.00;;;;;;4988519;28;20403;-70
2023/07/28 08:22:03;;;;;;;4.90;1.13;;;22.00;1.00;;;;;;4988908;28;20833;-70
2023/07/28 08:24:29;;;;;;;5.07;1.17;;;22.00;1.00;;;;;;4990064;28;20398;-70
2023/07/28 08:26:54;;;;;;;5.53;1.02;;;22.10;1.00;;;;;;4989131;28;20437;-70
2023/07/28 08:29:20;;;;;;;4.47;0.90;;;21.80;1.00;;;;;;4987681;28;20532;-70
2023/07/28 08:31:46;;;;;;;5.17;1.30;;;22.00;1.00;;;;;;4989261;28;20410;-70
2023/07/28 08:34:12;;;;;;;5.55;1.20;;;22.10;1.00;;;;;;4988541;28;20394;-71
2023/07/28 08:36:37;;;;;;;5.68;1.50;;;22.40;1.00;;;;;;4989500;28;20398;-71
2023/07/28 08:39:03;;;;;;;5.43;1.20;;;22.60;1.00;;;;;;4988421;28;20525;-70
2023/07/28 08:41:29;;;;;;;5.27;1.30;;;22.70;99.90;;;;;;4989159;28;20457;-70
2023/07/28 08:43:54;;;;;;;6.00;1.30;;;22.80;99.90;;;;;;4989015;28;20978;-71
2023/07/28 08:46:20;;;;;;;5.57;1.30;;;22.80;92.50;;;;;;4989013;28;20482;-70
2023/07/28 08:48:46;;;;;;;4.85;1.00;;;22.90;99.90;;;;;;4987754;28;20406;-70
2023/07/28 08:51:13;;;;;;;5.00;1.13;;;22.90;99.90;;;;;;4989575;28;20407;-70
2023/07/28 08:53:39;;;;;;;5.20;1.00;;;22.70;99.90;;;;;;4987557;28;20743;-70
2023/07/28 08:56:05;;;;;;;5.20;1.25;;;22.60;99.90;;;;;;4984220;28;20826;-70
2023/07/28 08:58:30;;;;;;;5.18;0.90;;;22.30;1.00;;;;;;4969741;28;20388;-70
2023/07/28 09:01:00;;;;;;;5.83;1.10;;;22.40;99.90;;;;;;4987088;28;20714;-70
2023/07/28 09:03:27;;;;;;;4.95;1.30;;;22.50;1.00;;;;;;4989207;28;20399;-70
2023/07/28 09:06:01;;;;;;;5.60;1.50;;;22.40;22.80;;;;;;4988476;28;20427;-70
2023/07/28 09:08:26;;;;;;;5.00;1.20;;;22.40;1.00;;;;;;4972093;28;20414;-70
2023/07/28 09:10:54;;;;;;;4.90;1.13;;;22.40;18.60;;;;;;4987465;28;20393;-70
2023/07/28 09:13:20;;;;;;;5.05;1.13;;;22.40;1.00;;;;;;4990309;28;20496;-70
2023/07/28 09:15:47;;;;;;;5.07;1.30;;;22.70;99.90;;;;;;4991191;28;20427;-71
2023/07/28 09:18:16;;;;;;;10.00;1.25;;;22.80;99.90;;;;;;4988475;28;20462;-71
2023/07/28 09:20:42;;;;;;;5.20;1.30;;;22.60;1.00;;;;;;4994497;28;20418;-71
2023/07/28 09:23:15;;;;;;;5.50;1.58;;;22.60;1.00;;;;;;4988750;28;20901;-70
2023/07/28 09:25:41;;;;;;;5.22;1.48;;;22.50;1.00;;;;;;4988764;28;20776;-70
2023/07/28 09:28:06;;;;;;;5.57;1.20;;;22.50;1.00;;;;;;4988882;28;20387;-70
2023/07/28 09:30:47;;;;;;;5.13;1.33;;;22.50;1.00;;;;;;4988066;28;20430;-70
2023/07/28 09:33:13;;;;;;;5.72;1.60;;;22.60;7.30;;;;;;4988818;28;20420;-70
2023/07/28 09:35:50;;;;;;;8.82;3.00;;;22.60;1.00;;;;;;4988086;28;20897;-70
2023/07/28 09:38:16;;;;;;;5.40;1.40;;;22.90;99.90;;;;;;4974637;28;20800;-70
2023/07/28 09:40:43;;;;;;;5.80;1.70;;;23.00;93.70;;;;;;4987705;28;20487;-70
2023/07/28 09:43:10;;;;;;;6.80;1.50;;;23.10;99.90;;;;;;4992013;28;20391;-70
2023/07/28 09:45:35;;;;;;;5.97;1.67;;;23.50;1.00;;;;;;4991045;28;20414;-70
2023/07/28 09:48:04;;;;;;;6.10;1.40;;;24.00;99.90;;;;;;4990472;28;20409;-70
2023/07/28 09:50:34;;;;;;;5.10;1.30;;;24.50;1.00;;;;;;4991401;28;20521;-70
2023/07/28 09:53:02;;;;;;;5.30;1.20;;;25.20;1.00;;;;;;4991548;28;20437;-70
2023/07/28 09:55:29;;;;;;;6.10;1.10;;;25.40;99.90;;;;;;4991398;28;20410;-70
2023/07/28 09:57:57;;;;;;;5.50;1.10;;;24.80;99.90;;;;;;4990969;28;20425;-70
2023/07/28 10:00:23;;;;;;;6.50;1.40;;;24.40;99.90;;;;;;4992000;28;20834;-70
2023/07/28 10:02:52;;;;;;;4.85;1.05;;;23.90;33.50;;;;;;4991344;28;20429;-70
2023/07/28 10:05:18;;;;;;;4.93;1.00;;;23.50;99.90;;;;;;4991584;28;20386;-70
2023/07/28 10:07:44;;;;;;;6.60;1.60;;;23.40;99.90;;;;;;4976655;28;20447;-70
2023/07/28 10:10:12;;;;;;;5.20;1.20;;;23.70;99.90;;;;;;4990022;28;20437;-70
2023/07/28 10:12:51;;;;;;;6.40;1.20;;;24.00;1.00;;;;;;4990967;28;20429;-69
2023/07/28 10:15:19;;;;;;;5.20;1.10;;;24.10;1.00;;;;;;4972011;28;20473;-69
2023/07/28 10:17:47;;;;;;;5.00;1.00;;;24.00;1.00;;;;;;4954895;28;20412;-70
2023/07/28 10:20:35;;;;;;;5.50;1.20;;;23.90;1.00;;;;;;4972998;28;20404;-70
2023/07/28 10:23:20;;;;;;;5.30;1.20;;;23.90;1.00;;;;;;4985040;28;20407;-70
2023/07/28 10:25:46;;;;;;;5.20;1.30;;;23.70;1.00;;;;;;4977955;28;20511;-70
2023/07/28 10:28:31;;;;;;;5.53;1.10;;;23.40;22.70;;;;;;4978763;28;20405;-69
2023/07/28 10:30:57;;;;;;;5.30;1.47;;;23.20;99.90;;;;;;4988762;28;20502;-70
2023/07/28 10:33:40;;;;;;;4.80;1.00;;;23.30;99.90;;;;;;4985704;28;20459;-70
2023/07/28 10:36:14;;;;;;;5.30;1.13;;;23.30;99.90;;;;;;4988117;28;20821;-70
2023/07/28 10:38:43;;;;;;;5.40;1.10;;;23.30;1.00;;;;;;4993208;28;20413;-69
2023/07/28 10:41:14;;;;;;;5.07;1.40;;;23.50;99.90;;;;;;4991026;28;20889;-69
2023/07/28 10:43:40;;;;;;;4.85;1.13;;;23.60;99.90;;;;;;4991548;28;20474;-69
2023/07/28 10:46:09;;;;;;;5.25;1.10;;;23.70;99.90;;;;;;4991042;28;20418;-70
2023/07/28 10:48:37;;;;;;;5.30;1.10;;;23.50;99.90;;;;;;4990863;28;20895;-70
2023/07/28 10:51:03;;;;;;;5.95;1.33;;;23.30;99.90;;;;;;4991270;28;20394;-70
2023/07/28 10:53:28;;;;;;;5.33;1.20;;;23.30;1.00;;;;;;4991554;28;20471;-70
2023/07/28 10:55:54;;;;;;;5.20;1.47;;;22.90;1.00;;;;;;4990790;28;20398;-70
2023/07/28 10:58:22;;;;;;;5.20;1.40;;;22.90;1.00;;;;;;4990785;28;20433;-70
2023/07/28 11:00:50;;;;;;;5.72;1.00;;;22.90;99.90;;;;;;4990810;28;20416;-70
2023/07/28 11:03:16;;;;;;;5.43;1.30;;;22.60;1.00;;;;;;4991284;28;21149;-70
2023/07/28 11:05:42;;;;;;;4.80;1.02;;;22.70;1.00;;;;;;4990813;28;20402;-70
2023/07/28 11:08:08;;;;;;;5.20;1.20;;;22.90;1.00;;;;;;4990806;28;20417;-70
2023/07/28 11:10:35;;;;;;;5.90;1.20;;;23.00;99.90;;;;;;4973302;28;20414;-70
2023/07/28 11:13:05;;;;;;;5.25;1.13;;;23.10;99.90;;;;;;4991167;28;20399;-69
2023/07/28 11:15:33;;;;;;;4.90;1.10;;;23.10;99.90;;;;;;4988269;28;20724;-70
2023/07/28 11:17:58;;;;;;;4.80;0.90;;;23.20;99.90;;;;;;4988921;28;20480;-70
2023/07/28 11:20:26;;;;;;;6.70;1.60;;;23.20;99.90;;;;;;4990696;28;20446;-70
2023/07/28 11:22:57;;;;;;;6.38;1.38;;;23.30;1.00;;;;;;4972994;28;20430;-70
2023/07/28 11:25:24;;;;;;;4.88;1.10;;;23.40;99.90;;;;;;4990552;28;20395;-70
2023/07/28 11:27:51;;;;;;;5.60;1.17;;;23.50;99.90;;;;;;4989884;28;20972;-70
2023/07/28 11:30:18;;;;;;;5.18;1.10;;;23.80;99.90;;;;;;4990501;28;20837;-70
2023/07/28 11:32:45;;;;;;;6.50;1.23;;;24.10;1.00;;;;;;4990363;28;20395;-70
2023/07/28 11:35:13;;;;;;;5.82;1.25;;;24.10;1.00;;;;;;4990556;28;20415;-70
2023/07/28 11:37:40;;;;;;;5.90;1.20;;;24.10;1.00;;;;;;4973362;28;20411;-70
2023/07/28 11:40:10;;;;;;;5.60;1.30;;;24.20;1.00;;;;;;4970074;28;20422;-71
2023/07/28 11:42:47;;;;;;;5.40;0.90;;;24.60;1.00;;;;;;4985790;28;20775;-70
2023/07/28 11:45:15;;;;;;;5.72;1.25;;;25.00;99.90;;;;;;4976392;28;20420;-71
2023/07/28 11:47:51;;;;;;;5.28;1.00;;;25.50;99.90;;;;;;4970797;28;20430;-71
2023/07/28 11:50:26;;;;;;;5.20;1.27;;;25.40;37.90;;;;;;4987978;28;20410;-71
2023/07/28 11:52:51;;;;;;;5.60;1.40;;;25.40;90.60;;;;;;4985994;28;20433;-70
2023/07/28 11:55:19;;;;;;;5.57;1.37;;;25.40;46.20;;;;;;4987620;28;20462;-70
2023/07/28 11:57:45;;;;;;;5.18;1.10;;;25.60;29.60;;;;;;4984071;28;20769;-70
2023/07/28 12:00:12;;;;;;;5.45;1.13;;;26.10;1.00;;;;;;4983254;28;20418;-71
2023/07/28 12:02:39;;;;;;;5.97;1.40;;;26.20;1.00;;;;;;4988848;28;20394;-70
2023/07/28 12:05:13;;;;;;;5.50;1.30;;;25.80;1.00;;;;;;4987745;28;20398;-70
2023/07/28 12:07:39;;;;;;;5.35;1.27;;;25.60;1.00;;;;;;4983882;28;20461;-71
2023/07/28 12:10:08;;;;;;;7.43;1.60;;;25.50;1.00;;;;;;4983686;28;20442;-71
2023/07/28 12:12:45;;;;;;;5.30;1.40;;;25.80;1.00;;;;;;4988968;28;20382;-71
2023/07/28 12:15:22;;;;;;;5.70;1.52;;;25.40;99.90;;;;;;4988392;28;20868;-71
2023/07/28 12:18:08;;;;;;;5.97;1.55;;;24.90;99.90;;;;;;4984041;28;20411;-70
2023/07/28 12:20:46;;;;;;;5.70;1.50;;;24.60;1.00;;;;;;4983467;28;20497;-70
2023/07/28 12:23:16;;;;;;;5.88;1.70;;;24.40;52.60;;;;;;4987058;28;20394;-70
2023/07/28 12:25:42;;;;;;;7.73;2.07;;;24.30;99.90;;;;;;4987111;28;20925;-70
2023/07/28 12:28:08;;;;;;;6.47;2.33;;;24.30;1.00;;;;;;4987233;28;20510;-70
2023/07/28 12:30:34;;;;;;;6.10;1.40;;;24.30;99.90;;;;;;4969971;28;20489;-70
2023/07/28 12:33:00;;;;;;;7.30;1.90;;;24.10;99.90;;;;;;4987857;28;20410;-70
2023/07/28 12:35:30;;;;;;;6.03;1.58;;;23.90;99.90;;;;;;4987992;28;20429;-70
2023/07/28 12:37:59;;;;;;;6.03;1.98;;;24.00;99.90;;;;;;4989003;28;20635;-70
2023/07/28 12:40:25;;;;;;;5.88;1.75;;;23.90;99.90;;;;;;4986827;28;20418;-70
2023/07/28 12:42:51;;;;;;;6.82;2.20;;;23.60;1.00;;;;;;4986961;28;20935;-69
2023/07/28 12:45:17;;;;;;;6.70;1.88;;;23.60;1.00;;;;;;4989316;28;20431;-68
2023/07/28 12:47:43;;;;;;;5.65;1.70;;;23.60;99.90;;;;;;4989762;28;20480;-69
2023/07/28 12:50:09;;;;;;;5.87;1.80;;;24.00;1.00;;;;;;4987952;28;20414;-70
2023/07/28 12:52:36;;;;;;;6.78;1.90;;;24.30;99.90;;;;;;4989992;28;20484;-69
2023/07/28 12:55:03;;;;;;;6.18;1.80;;;24.60;99.90;;;;;;4988488;28;20402;-70
2023/07/28 12:57:28;;;;;;;5.80;1.50;;;24.80;99.90;;;;;;4989722;28;20456;-70